createdAt,value
2018-05-23T00:02:14.152Z,18.17
2018-05-23T00:04:42.469Z,18.18
2018-05-23T00:07:11.513Z,18.16
2018-05-23T00:09:39.908Z,18.09
2018-05-23T00:12:08.231Z,18.09
2018-05-23T00:14:37.294Z,18.09
2018-05-23T00:17:05.602Z,18.09
2018-05-23T00:19:34.838Z,18.08
2018-05-23T00:22:03.214Z,18.06
2018-05-23T00:24:32.023Z,18.11
2018-05-23T00:27:00.331Z,18.09
2018-05-23T00:29:29.450Z,18.04
2018-05-23T00:31:58.521Z,18.03
2018-05-23T00:34:26.807Z,18.01
2018-05-23T00:36:55.879Z,17.99
2018-05-23T00:39:24.178Z,17.94
2018-05-23T00:41:53.264Z,17.89
2018-05-23T00:44:21.529Z,17.91
2018-05-23T00:46:49.836Z,17.93
2018-05-23T00:49:18.965Z,17.91
2018-05-23T00:51:47.214Z,17.86
2018-05-23T00:54:16.282Z,17.83
2018-05-23T00:56:44.580Z,17.82
2018-05-23T00:59:13.643Z,17.87
2018-05-23T01:01:41.952Z,17.82
2018-05-23T01:04:11.019Z,17.89
2018-05-23T01:06:39.330Z,17.83
2018-05-23T01:09:08.418Z,17.73
2018-05-23T01:11:37.957Z,17.73
2018-05-23T01:14:06.277Z,17.75
2018-05-23T01:16:34.588Z,17.68
2018-05-23T01:19:02.872Z,17.73
2018-05-23T01:21:31.233Z,17.72
2018-05-23T01:24:00.323Z,17.65
2018-05-23T01:26:29.393Z,17.63
2018-05-23T01:28:57.708Z,17.65
2018-05-23T01:31:26.789Z,17.64
2018-05-23T01:33:55.084Z,17.56
2018-05-23T01:36:24.207Z,17.65
2018-05-23T01:38:52.659Z,17.64
2018-05-23T01:41:21.721Z,17.53
2018-05-23T01:43:50.036Z,17.51
2018-05-23T01:46:18.333Z,17.53
2018-05-23T01:49:04.409Z,17.56
2018-05-23T01:51:33.474Z,17.53
2018-05-23T01:54:01.871Z,17.50
2018-05-23T01:56:30.128Z,17.51
2018-05-23T01:58:58.406Z,17.47
2018-05-23T02:01:26.721Z,17.49
2018-05-23T02:03:55.099Z,17.47
2018-05-23T02:06:23.426Z,17.45
2018-05-23T02:08:51.758Z,17.43
2018-05-23T02:11:20.900Z,17.46
2018-05-23T02:13:50.049Z,17.46
2018-05-23T02:16:19.164Z,17.48
2018-05-23T02:18:47.479Z,17.43
2018-05-23T02:21:15.806Z,17.41
2018-05-23T02:23:44.119Z,17.36
2018-05-23T02:26:13.189Z,17.40
2018-05-23T02:28:41.825Z,17.40
2018-05-23T02:31:10.140Z,17.34
2018-05-23T02:33:38.428Z,17.33
2018-05-23T02:36:06.744Z,17.33
2018-05-23T02:38:35.061Z,17.29
2018-05-23T02:41:04.123Z,17.25
2018-05-23T02:43:32.429Z,17.20
2018-05-23T02:46:01.481Z,17.24
2018-05-23T02:48:29.790Z,17.22
2018-05-23T02:50:58.097Z,17.18
2018-05-23T02:53:26.416Z,17.21
2018-05-23T02:55:54.685Z,17.18
2018-05-23T02:58:22.975Z,17.23
2018-05-23T03:00:51.274Z,17.22
2018-05-23T03:03:19.571Z,17.18
2018-05-23T03:05:48.592Z,17.15
2018-05-23T03:08:16.969Z,17.18
2018-05-23T03:10:45.415Z,17.15
2018-05-23T03:13:14.502Z,17.16
2018-05-23T03:15:42.742Z,17.15
2018-05-23T03:18:11.276Z,17.18
2018-05-23T03:20:40.311Z,17.16
2018-05-23T03:23:08.644Z,17.19
2018-05-23T03:25:37.684Z,17.13
2018-05-23T03:28:05.981Z,17.15
2018-05-23T03:30:34.349Z,17.08
2018-05-23T03:33:02.724Z,17.15
2018-05-23T03:35:30.968Z,17.13
2018-05-23T03:37:59.385Z,17.14
2018-05-23T03:40:27.688Z,17.08
2018-05-23T03:42:56.009Z,17.06
2018-05-23T03:45:24.318Z,17.07
2018-05-23T03:47:53.381Z,17.07
2018-05-23T03:50:21.705Z,17.11
2018-05-23T03:52:50.347Z,17.10
2018-05-23T03:55:18.725Z,17.11
2018-05-23T03:57:46.954Z,17.07
2018-05-23T04:00:33.025Z,17.08
2018-05-23T04:03:19.104Z,17.03
2018-05-23T04:08:58.795Z,16.94
2018-05-23T04:11:27.108Z,16.95
2018-05-23T04:13:56.193Z,17.05
2018-05-23T04:16:24.496Z,17.14
2018-05-23T04:18:53.110Z,17.09
2018-05-23T04:21:21.435Z,17.13
2018-05-23T04:23:49.734Z,17.22
2018-05-23T04:26:18.067Z,17.20
2018-05-23T04:28:46.401Z,17.27
2018-05-23T04:31:14.694Z,17.13
2018-05-23T04:33:42.976Z,17.28
2018-05-23T04:36:11.404Z,17.39
2018-05-23T04:38:40.382Z,17.50
2018-05-23T04:41:08.693Z,17.59
2018-05-23T04:43:37.751Z,17.49
2018-05-23T04:46:06.052Z,17.45
2018-05-23T04:48:35.107Z,17.59
2018-05-23T04:51:03.410Z,17.53
2018-05-23T04:53:31.765Z,17.72
2018-05-23T04:56:00.076Z,17.89
2018-05-23T04:58:28.402Z,17.68
2018-05-23T05:00:56.739Z,17.85
2018-05-23T05:03:25.805Z,17.84
2018-05-23T05:05:54.374Z,17.56
2018-05-23T05:08:22.717Z,17.50
2018-05-23T05:10:51.099Z,18.13
2018-05-23T05:13:19.431Z,18.28
2018-05-23T05:15:47.717Z,18.29
2018-05-23T05:18:16.003Z,18.16
2018-05-23T05:20:44.297Z,17.78
2018-05-23T05:23:13.376Z,17.74
2018-05-23T05:25:41.666Z,17.75
2018-05-23T05:28:10.739Z,17.99
2018-05-23T05:30:39.028Z,18.44
2018-05-23T05:33:07.336Z,18.00
2018-05-23T05:35:35.662Z,18.44
2018-05-23T05:38:03.977Z,18.50
2018-05-23T05:40:33.047Z,18.83
2018-05-23T05:43:01.346Z,18.72
2018-05-23T05:45:30.405Z,18.39
2018-05-23T05:47:59.194Z,18.39
2018-05-23T05:50:27.474Z,18.84
2018-05-23T05:52:55.776Z,19.06
2018-05-23T05:55:24.071Z,18.69
2018-05-23T05:57:53.132Z,18.74
2018-05-23T06:00:21.469Z,18.17
2018-05-23T06:02:49.754Z,18.02
2018-05-23T06:05:18.126Z,18.25
2018-05-23T06:07:47.151Z,18.52
2018-05-23T06:10:15.447Z,18.30
2018-05-23T06:12:43.797Z,18.60
2018-05-23T06:15:12.151Z,18.95
2018-05-23T06:17:40.443Z,18.74
2018-05-23T06:20:08.806Z,19.49
2018-05-23T06:22:37.155Z,19.34
2018-05-23T06:25:06.197Z,19.49
2018-05-23T06:27:34.577Z,19.26
2018-05-23T06:30:02.957Z,19.26
2018-05-23T06:32:31.331Z,19.07
2018-05-23T06:34:59.680Z,18.74
2018-05-23T06:37:28.014Z,19.06
2018-05-23T06:39:56.371Z,19.19
2018-05-23T06:42:25.416Z,19.46
2018-05-23T06:44:54.633Z,19.89
2018-05-23T06:47:22.965Z,19.95
2018-05-23T06:49:51.241Z,19.54
2018-05-23T06:52:19.568Z,19.38
2018-05-23T06:54:47.889Z,19.81
2018-05-23T06:57:16.216Z,19.62
2018-05-23T06:59:45.260Z,19.48
2018-05-23T07:02:13.684Z,20.03
2018-05-23T07:04:43.026Z,19.83
2018-05-23T07:07:11.343Z,19.71
2018-05-23T07:09:39.664Z,19.99
2018-05-23T07:12:07.984Z,19.61
2018-05-23T07:14:36.336Z,19.69
2018-05-23T07:17:05.004Z,19.91
2018-05-23T07:19:33.421Z,20.52
2018-05-23T07:22:01.758Z,21.19
2018-05-23T07:24:30.366Z,21.65
2018-05-23T07:26:58.682Z,21.58
2018-05-23T07:29:27.218Z,21.48
2018-05-23T07:31:55.617Z,21.75
2018-05-23T07:34:23.905Z,22.57
2018-05-23T07:36:52.220Z,22.83
2018-05-23T07:39:21.287Z,22.68
2018-05-23T07:41:49.589Z,24.36
2018-05-23T07:44:18.640Z,25.19
2018-05-23T07:46:46.951Z,24.39
2018-05-23T07:49:15.351Z,24.65
2018-05-23T07:51:44.467Z,25.62
2018-05-23T07:54:12.796Z,25.01
2018-05-23T07:56:41.182Z,24.39
2018-05-23T07:59:09.798Z,25.16
2018-05-23T08:01:38.840Z,23.72
2018-05-23T08:04:07.155Z,23.75
2018-05-23T08:06:36.252Z,23.63
2018-05-23T08:09:06.111Z,23.13
2018-05-23T08:11:34.460Z,23.43
2018-05-23T08:14:03.568Z,23.71
2018-05-23T08:16:31.856Z,23.40
2018-05-23T08:19:00.177Z,22.89
2018-05-23T08:21:28.512Z,23.64
2018-05-23T08:23:56.846Z,23.65
2018-05-23T08:26:25.923Z,23.34
2018-05-23T08:28:54.188Z,23.20
2018-05-23T08:31:23.369Z,23.66
2018-05-23T08:33:51.680Z,23.53
2018-05-23T08:36:20.036Z,23.33
2018-05-23T08:38:49.114Z,22.70
2018-05-23T08:41:17.398Z,22.60
2018-05-23T08:43:45.721Z,23.17
2018-05-23T08:46:14.318Z,22.09
2018-05-23T08:48:43.441Z,23.01
2018-05-23T08:51:11.904Z,23.24
2018-05-23T08:53:40.999Z,23.34
2018-05-23T08:56:09.319Z,23.72
2018-05-23T08:58:37.675Z,23.18
2018-05-23T09:01:06.010Z,22.98
2018-05-23T09:03:34.288Z,23.17
2018-05-23T09:06:02.609Z,23.86
2018-05-23T09:08:30.930Z,23.50
2018-05-23T09:10:59.274Z,22.92
2018-05-23T09:13:27.583Z,23.17
2018-05-23T09:15:55.907Z,23.56
2018-05-23T09:18:24.175Z,23.31
2018-05-23T09:20:52.556Z,23.29
2018-05-23T09:23:20.872Z,23.46
2018-05-23T09:25:49.241Z,23.70
2018-05-23T09:28:17.934Z,23.35
2018-05-23T09:30:46.234Z,22.85
2018-05-23T09:33:14.569Z,23.32
2018-05-23T09:35:42.892Z,23.60
2018-05-23T09:38:11.125Z,23.54
2018-05-23T09:40:39.484Z,23.44
2018-05-23T09:43:08.594Z,22.96
2018-05-23T09:45:36.889Z,22.96
2018-05-23T09:48:05.342Z,22.53
2018-05-23T09:50:34.437Z,22.64
2018-05-23T09:53:03.459Z,22.53
2018-05-23T09:55:31.775Z,22.53
2018-05-23T09:58:00.866Z,22.49
2018-05-23T10:00:29.156Z,22.82
2018-05-23T10:02:58.324Z,23.49
2018-05-23T10:05:26.617Z,23.42
2018-05-23T10:07:54.936Z,23.34
2018-05-23T10:10:23.977Z,23.16
2018-05-23T10:12:52.291Z,23.20
2018-05-23T10:15:21.620Z,23.30
2018-05-23T10:17:49.958Z,23.72
2018-05-23T10:20:18.273Z,23.55
2018-05-23T10:22:46.585Z,23.28
2018-05-23T10:25:14.948Z,23.15
2018-05-23T10:27:43.373Z,23.07
2018-05-23T10:30:11.711Z,23.53
2018-05-23T10:32:40.018Z,22.89
2018-05-23T10:35:08.317Z,23.93
2018-05-23T10:37:36.610Z,23.35
2018-05-23T10:40:05.747Z,23.01
2018-05-23T10:42:34.059Z,23.58
2018-05-23T10:45:02.365Z,23.48
2018-05-23T10:47:31.450Z,23.87
2018-05-23T10:50:00.520Z,23.65
2018-05-23T10:52:28.835Z,23.68
2018-05-23T10:54:57.918Z,23.95
2018-05-23T10:57:27.686Z,24.14
2018-05-23T10:59:56.057Z,23.17
2018-05-23T11:02:25.028Z,23.33
2018-05-23T11:04:53.352Z,23.37
2018-05-23T11:07:21.682Z,23.66
2018-05-23T11:09:49.998Z,23.32
2018-05-23T11:12:18.317Z,24.22
2018-05-23T11:14:47.537Z,23.81
2018-05-23T11:17:15.884Z,23.71
2018-05-23T11:19:44.215Z,23.93
2018-05-23T11:22:12.512Z,24.16
2018-05-23T11:24:40.838Z,23.36
2018-05-23T11:27:09.897Z,23.35
2018-05-23T11:29:38.330Z,24.05
2018-05-23T11:32:06.644Z,24.01
2018-05-23T11:34:34.971Z,24.47
2018-05-23T11:37:03.303Z,24.15
2018-05-23T11:39:31.628Z,24.13
2018-05-23T11:42:00.100Z,24.37
2018-05-23T11:44:28.678Z,24.01
2018-05-23T11:46:57.765Z,24.79
2018-05-23T11:49:27.072Z,24.70
2018-05-23T11:51:56.248Z,24.46
2018-05-23T11:54:24.553Z,24.80
2018-05-23T11:56:53.613Z,25.52
2018-05-23T11:59:21.899Z,24.28
2018-05-23T12:01:50.218Z,24.61
2018-05-23T12:04:19.256Z,24.44
2018-05-23T12:06:47.600Z,24.37
2018-05-23T12:09:15.907Z,24.87
2018-05-23T12:11:44.240Z,25.19
2018-05-23T12:14:12.543Z,25.59
2018-05-23T12:16:40.837Z,25.38
2018-05-23T12:19:09.215Z,25.75
2018-05-23T12:21:37.516Z,25.42
2018-05-23T12:24:06.162Z,25.27
2018-05-23T12:26:34.457Z,25.38
2018-05-23T12:29:02.787Z,24.74
2018-05-23T12:31:32.110Z,24.78
2018-05-23T12:34:00.438Z,25.19
2018-05-23T12:36:28.726Z,25.24
2018-05-23T12:38:57.033Z,24.84
2018-05-23T12:41:25.440Z,25.19
2018-05-23T12:43:53.829Z,25.10
2018-05-23T12:46:22.133Z,25.14
2018-05-23T12:48:50.452Z,25.46
2018-05-23T12:51:18.776Z,25.06
2018-05-23T12:53:47.141Z,24.68
2018-05-23T12:56:15.533Z,24.71
2018-05-23T12:58:43.861Z,25.13
2018-05-23T13:01:12.923Z,25.42
2018-05-23T13:03:41.251Z,25.06
2018-05-23T13:06:09.577Z,25.53
2018-05-23T13:08:37.891Z,25.34
2018-05-23T13:11:06.183Z,25.54
2018-05-23T13:13:34.538Z,24.97
2018-05-23T13:16:03.625Z,25.38
2018-05-23T13:18:32.685Z,25.27
2018-05-23T13:21:01.070Z,24.83
2018-05-23T13:23:29.396Z,24.91
2018-05-23T13:25:58.583Z,24.47
2018-05-23T13:28:26.798Z,24.66
2018-05-23T13:30:55.081Z,25.37
2018-05-23T13:33:24.146Z,24.43
2018-05-23T13:35:52.461Z,25.12
2018-05-23T13:38:20.729Z,25.17
2018-05-23T13:40:49.844Z,25.24
2018-05-23T13:43:18.113Z,25.46
2018-05-23T13:45:46.414Z,25.12
2018-05-23T13:48:14.788Z,25.16
2018-05-23T13:50:43.101Z,25.28
2018-05-23T13:53:12.179Z,25.42
2018-05-23T13:55:41.227Z,25.29
2018-05-23T13:58:09.540Z,25.14
2018-05-23T14:00:38.322Z,25.55
2018-05-23T14:03:06.632Z,25.42
2018-05-23T14:05:35.759Z,25.30
2018-05-23T14:08:04.073Z,24.97
2018-05-23T14:10:33.884Z,24.83
2018-05-23T14:13:02.209Z,25.21
2018-05-23T14:15:30.538Z,25.27
2018-05-23T14:17:58.861Z,25.27
2018-05-23T14:20:27.905Z,25.13
2018-05-23T14:22:56.243Z,24.93
2018-05-23T14:25:24.582Z,25.06
2018-05-23T14:27:52.925Z,25.28
2018-05-23T14:30:21.311Z,25.36
2018-05-23T14:32:49.594Z,24.81
2018-05-23T14:35:17.946Z,24.98
2018-05-23T14:37:46.227Z,24.77
2018-05-23T14:40:14.698Z,24.97
2018-05-23T14:42:43.398Z,24.72
2018-05-23T14:45:11.726Z,24.93
2018-05-23T14:47:40.032Z,24.65
2018-05-23T14:50:08.371Z,24.87
2018-05-23T14:52:36.679Z,25.02
2018-05-23T14:55:05.801Z,24.66
2018-05-23T14:57:34.113Z,24.59
2018-05-23T15:00:02.455Z,24.53
2018-05-23T15:02:30.842Z,24.54
2018-05-23T15:04:59.080Z,24.77
2018-05-23T15:07:28.266Z,24.62
2018-05-23T15:09:57.365Z,24.53
2018-05-23T15:12:27.277Z,24.45
2018-05-23T15:14:56.333Z,24.85
2018-05-23T15:17:24.629Z,24.66
2018-05-23T15:19:53.069Z,24.72
2018-05-23T15:22:21.358Z,24.73
2018-05-23T15:24:49.693Z,24.94
2018-05-23T15:27:18.773Z,24.85
2018-05-23T15:29:47.366Z,24.87
2018-05-23T15:32:16.420Z,24.95
2018-05-23T15:34:44.892Z,24.70
2018-05-23T15:37:14.058Z,24.80
2018-05-23T15:39:43.126Z,24.74
2018-05-23T15:42:11.455Z,24.90
2018-05-23T15:44:39.730Z,24.73
2018-05-23T15:47:08.060Z,24.90
2018-05-23T15:49:36.483Z,24.62
2018-05-23T15:52:04.820Z,24.76
2018-05-23T15:54:33.117Z,24.85
2018-05-23T15:57:02.339Z,24.82
2018-05-23T15:59:30.672Z,24.87
2018-05-23T16:01:58.991Z,24.82
2018-05-23T16:04:27.311Z,24.58
2018-05-23T16:06:55.658Z,24.85
2018-05-23T16:09:24.097Z,25.01
2018-05-23T16:11:52.349Z,25.00
2018-05-23T16:14:20.714Z,24.74
2018-05-23T16:16:49.584Z,24.87
2018-05-23T16:19:17.875Z,24.82
2018-05-23T16:21:46.169Z,24.71
2018-05-23T16:24:14.479Z,24.69
2018-05-23T16:26:43.543Z,24.64
2018-05-23T16:29:11.840Z,24.56
2018-05-23T16:31:40.183Z,24.57
2018-05-23T16:34:08.498Z,24.83
2018-05-23T16:36:36.760Z,24.79
2018-05-23T16:39:05.853Z,24.59
2018-05-23T16:41:34.167Z,24.68
2018-05-23T16:44:03.258Z,24.77
2018-05-23T16:46:32.440Z,24.64
2018-05-23T16:49:05.018Z,24.55
2018-05-23T16:51:33.350Z,24.53
2018-05-23T16:54:01.689Z,24.51
2018-05-23T16:56:30.825Z,24.66
2018-05-23T16:58:59.141Z,24.72
2018-05-23T17:01:27.469Z,24.40
2018-05-23T17:03:55.805Z,24.40
2018-05-23T17:06:24.186Z,24.38
2018-05-23T17:08:52.441Z,24.42
2018-05-23T17:11:20.888Z,24.33
2018-05-23T17:13:49.188Z,24.34
2018-05-23T17:16:17.514Z,24.28
2018-05-23T17:18:46.678Z,24.22
2018-05-23T17:21:14.945Z,24.43
2018-05-23T17:23:43.247Z,24.29
2018-05-23T17:26:11.596Z,24.20
2018-05-23T17:28:39.896Z,24.22
2018-05-23T17:31:08.213Z,24.22
2018-05-23T17:33:36.524Z,24.15
2018-05-23T17:36:05.577Z,24.12
2018-05-23T17:38:34.701Z,24.16
2018-05-23T17:41:02.979Z,24.11
2018-05-23T17:43:31.302Z,24.06
2018-05-23T17:45:59.610Z,24.02
2018-05-23T17:48:28.722Z,23.93
2018-05-23T17:50:57.266Z,24.07
2018-05-23T17:53:25.545Z,23.98
2018-05-23T17:55:54.660Z,23.84
2018-05-23T17:58:23.843Z,23.86
2018-05-23T18:00:52.907Z,23.79
2018-05-23T18:03:21.517Z,23.79
2018-05-23T18:05:49.902Z,23.83
2018-05-23T18:08:18.131Z,23.87
2018-05-23T18:10:46.430Z,23.72
2018-05-23T18:13:14.748Z,23.74
2018-05-23T18:15:43.779Z,23.62
2018-05-23T18:18:12.092Z,23.57
2018-05-23T18:20:40.421Z,23.56
2018-05-23T18:23:08.738Z,23.49
2018-05-23T18:25:37.060Z,23.43
2018-05-23T18:28:05.368Z,23.38
2018-05-23T18:30:33.709Z,23.27
2018-05-23T18:33:03.225Z,23.26
2018-05-23T18:35:31.552Z,23.16
2018-05-23T18:37:59.870Z,23.12
2018-05-23T18:40:28.928Z,23.04
2018-05-23T18:42:57.259Z,22.96
2018-05-23T18:45:25.677Z,22.91
2018-05-23T18:47:53.975Z,22.86
2018-05-23T18:50:22.288Z,22.78
2018-05-23T18:52:50.566Z,22.70
2018-05-23T18:55:19.665Z,22.67
2018-05-23T18:57:48.134Z,22.61
2018-05-23T19:00:17.228Z,22.52
2018-05-23T19:02:46.295Z,22.47
2018-05-23T19:05:14.709Z,22.42
2018-05-23T19:07:43.034Z,22.31
2018-05-23T19:10:11.382Z,22.25
2018-05-23T19:12:39.761Z,22.21
2018-05-23T19:15:08.132Z,22.12
2018-05-23T19:17:36.460Z,22.04
2018-05-23T19:20:05.146Z,21.98
2018-05-23T19:22:33.403Z,21.88
2018-05-23T19:25:01.709Z,21.83
2018-05-23T19:27:30.009Z,21.71
2018-05-23T19:29:59.116Z,21.71
2018-05-23T19:32:28.184Z,21.60
2018-05-23T19:34:56.456Z,21.52
2018-05-23T19:37:24.777Z,21.47
2018-05-23T19:39:53.349Z,21.36
2018-05-23T19:42:21.554Z,21.32
2018-05-23T19:44:49.863Z,21.26
2018-05-23T19:47:18.196Z,21.22
2018-05-23T19:49:46.505Z,21.21
2018-05-23T19:52:14.828Z,21.15
2018-05-23T19:54:43.903Z,21.17
2018-05-23T19:57:12.221Z,21.14
2018-05-23T19:59:41.255Z,21.05
2018-05-23T20:02:10.080Z,21.00
2018-05-23T20:04:39.053Z,20.99
2018-05-23T20:07:08.013Z,20.88
2018-05-23T20:09:36.343Z,20.87
2018-05-23T20:12:05.446Z,20.77
2018-05-23T20:14:34.625Z,20.74
2018-05-23T20:17:02.881Z,20.72
2018-05-23T20:19:31.229Z,20.69
2018-05-23T20:21:59.522Z,20.62
2018-05-23T20:24:27.845Z,20.50
2018-05-23T20:27:03.919Z,20.46
2018-05-23T20:29:33.076Z,20.38
2018-05-23T20:32:01.475Z,20.26
2018-05-23T20:34:29.810Z,20.20
2018-05-23T20:36:58.146Z,20.18
2018-05-23T20:39:26.456Z,20.11
2018-05-23T20:41:54.771Z,20.06
2018-05-23T20:44:23.066Z,20.07
2018-05-23T20:46:51.346Z,20.00
2018-05-23T20:49:20.389Z,20.02
2018-05-23T20:51:48.687Z,20.03
2018-05-23T20:54:16.973Z,19.93
2018-05-23T20:56:45.311Z,19.84
2018-05-23T20:59:13.607Z,19.75
2018-05-23T21:01:41.922Z,19.62
2018-05-23T21:04:10.201Z,19.64
2018-05-23T21:06:38.490Z,19.69
2018-05-23T21:09:07.586Z,19.64
2018-05-23T21:11:36.687Z,19.69
2018-05-23T21:14:04.974Z,19.57
2018-05-23T21:16:34.067Z,19.46
2018-05-23T21:19:03.110Z,19.43
2018-05-23T21:21:31.421Z,19.44
2018-05-23T21:23:59.736Z,19.40
2018-05-23T21:26:28.044Z,19.37
2018-05-23T21:28:56.361Z,19.31
2018-05-23T21:31:25.439Z,19.31
2018-05-23T21:33:53.756Z,19.31
2018-05-23T21:36:22.048Z,19.36
2018-05-23T21:38:50.346Z,19.33
2018-05-23T21:41:18.761Z,19.22
2018-05-23T21:43:47.102Z,19.16
2018-05-23T21:46:15.446Z,19.15
2018-05-23T21:48:43.805Z,19.01
2018-05-23T21:51:12.995Z,19.09
2018-05-23T21:53:41.373Z,18.94
2018-05-23T21:56:09.714Z,18.93
2018-05-23T21:58:38.045Z,18.80
2018-05-23T22:01:07.187Z,18.81
2018-05-23T22:03:35.504Z,18.80
2018-05-23T22:06:03.852Z,18.73
2018-05-23T22:08:32.181Z,18.71
2018-05-23T22:11:01.279Z,18.74
2018-05-23T22:13:29.588Z,18.79
2018-05-23T22:15:57.931Z,18.82
2018-05-23T22:18:27.026Z,18.75
2018-05-23T22:20:55.348Z,18.79
2018-05-23T22:23:24.395Z,18.83
2018-05-23T22:25:53.509Z,18.78
2018-05-23T22:28:21.914Z,18.79
2018-05-23T22:30:50.331Z,18.71
2018-05-23T22:33:18.880Z,18.80
2018-05-23T22:35:47.288Z,18.80
2018-05-23T22:38:15.672Z,18.77
2018-05-23T22:40:43.978Z,18.78
2018-05-23T22:43:12.283Z,18.68
2018-05-23T22:45:40.605Z,18.77
2018-05-23T22:48:08.919Z,18.69
2018-05-23T22:50:37.307Z,18.70
2018-05-23T22:53:05.626Z,18.59
2018-05-23T22:55:34.048Z,18.60
2018-05-23T22:58:05.582Z,18.55
2018-05-23T23:00:33.905Z,18.53
2018-05-23T23:03:02.287Z,18.51
2018-05-23T23:05:30.666Z,18.41
2018-05-23T23:07:58.999Z,18.38
2018-05-23T23:10:27.820Z,18.37
2018-05-23T23:12:56.127Z,18.38
2018-05-23T23:15:24.420Z,18.29
2018-05-23T23:17:52.727Z,18.33
2018-05-23T23:20:21.805Z,18.35
2018-05-23T23:22:50.157Z,18.33
2018-05-23T23:27:53.013Z,18.25
2018-05-23T23:30:21.286Z,18.17
2018-05-23T23:32:50.360Z,18.12
2018-05-23T23:35:18.680Z,18.06
2018-05-23T23:37:46.984Z,18.08
2018-05-23T23:40:15.277Z,18.00
2018-05-23T23:42:43.628Z,17.95
2018-05-23T23:45:11.984Z,17.92
2018-05-23T23:47:41.102Z,17.92
2018-05-23T23:50:09.345Z,17.91
2018-05-23T23:52:37.693Z,17.92
2018-05-23T23:55:07.500Z,17.85
2018-05-23T23:57:35.854Z,17.92
